sensor_id;sensor_type;location;lat;lon;timestamp;P1;durP1;ratioP1;P2;durP2;ratioP2
38859;SDS011;24609;48.316;16.174;2023-07-31T00:00:27;5.95;;;2.58;;
38859;SDS011;24609;48.316;16.174;2023-07-31T00:02:53;2.47;;;2.00;;
38859;SDS011;24609;48.316;16.174;2023-07-31T00:05:19;3.40;;;2.20;;
38859;SDS011;24609;48.316;16.174;2023-07-31T00:07:45;3.67;;;2.15;;
38859;SDS011;24609;48.316;16.174;2023-07-31T00:10:11;4.95;;;2.15;;
38859;SDS011;24609;48.316;16.174;2023-07-31T00:12:37;2.88;;;1.80;;
38859;SDS011;24609;48.316;16.174;2023-07-31T00:15:04;4.07;;;2.03;;
38859;SDS011;24609;48.316;16.174;2023-07-31T00:17:32;4.30;;;2.15;;
38859;SDS011;24609;48.316;16.174;2023-07-31T00:19:58;2.75;;;1.88;;
38859;SDS011;24609;48.316;16.174;2023-07-31T00:22:23;2.75;;;1.63;;
38859;SDS011;24609;48.316;16.174;2023-07-31T00:24:49;2.90;;;1.98;;
38859;SDS011;24609;48.316;16.174;2023-07-31T00:27:15;2.50;;;2.10;;
38859;SDS011;24609;48.316;16.174;2023-07-31T00:29:40;6.78;;;2.35;;
38859;SDS011;24609;48.316;16.174;2023-07-31T00:32:06;4.07;;;2.22;;
38859;SDS011;24609;48.316;16.174;2023-07-31T00:34:32;3.17;;;1.95;;
38859;SDS011;24609;48.316;16.174;2023-07-31T00:36:58;3.20;;;2.28;;
38859;SDS011;24609;48.316;16.174;2023-07-31T00:39:24;2.45;;;2.22;;
38859;SDS011;24609;48.316;16.174;2023-07-31T00:41:49;2.88;;;2.45;;
38859;SDS011;24609;48.316;16.174;2023-07-31T00:44:15;2.63;;;2.10;;
38859;SDS011;24609;48.316;16.174;2023-07-31T00:46:41;4.22;;;2.28;;
38859;SDS011;24609;48.316;16.174;2023-07-31T00:49:06;4.32;;;2.10;;
38859;SDS011;24609;48.316;16.174;2023-07-31T00:51:33;3.92;;;1.90;;
38859;SDS011;24609;48.316;16.174;2023-07-31T00:53:59;4.28;;;2.25;;
38859;SDS011;24609;48.316;16.174;2023-07-31T00:56:25;3.30;;;2.38;;
38859;SDS011;24609;48.316;16.174;2023-07-31T00:58:53;3.65;;;2.42;;
38859;SDS011;24609;48.316;16.174;2023-07-31T01:01:20;4.57;;;2.40;;
38859;SDS011;24609;48.316;16.174;2023-07-31T01:03:45;3.38;;;2.17;;
38859;SDS011;24609;48.316;16.174;2023-07-31T01:06:15;6.63;;;2.45;;
38859;SDS011;24609;48.316;16.174;2023-07-31T01:11:27;2.65;;;2.13;;
38859;SDS011;24609;48.316;16.174;2023-07-31T01:13:55;2.78;;;2.30;;
38859;SDS011;24609;48.316;16.174;2023-07-31T01:16:21;3.72;;;2.20;;
38859;SDS011;24609;48.316;16.174;2023-07-31T01:18:47;5.63;;;2.03;;
38859;SDS011;24609;48.316;16.174;2023-07-31T01:21:18;2.70;;;2.00;;
38859;SDS011;24609;48.316;16.174;2023-07-31T01:27:02;3.80;;;2.17;;
38859;SDS011;24609;48.316;16.174;2023-07-31T01:30:07;2.60;;;2.33;;
38859;SDS011;24609;48.316;16.174;2023-07-31T01:32:35;4.53;;;2.20;;
38859;SDS011;24609;48.316;16.174;2023-07-31T01:37:31;3.65;;;2.10;;
38859;SDS011;24609;48.316;16.174;2023-07-31T01:39:56;4.95;;;2.40;;
38859;SDS011;24609;48.316;16.174;2023-07-31T01:42:22;7.45;;;2.40;;
38859;SDS011;24609;48.316;16.174;2023-07-31T01:44:47;5.53;;;2.53;;
38859;SDS011;24609;48.316;16.174;2023-07-31T01:47:13;3.78;;;2.30;;
38859;SDS011;24609;48.316;16.174;2023-07-31T01:49:39;3.35;;;2.15;;
38859;SDS011;24609;48.316;16.174;2023-07-31T01:52:05;5.07;;;2.40;;
38859;SDS011;24609;48.316;16.174;2023-07-31T01:54:31;3.22;;;2.40;;
38859;SDS011;24609;48.316;16.174;2023-07-31T01:56:56;2.25;;;2.05;;
38859;SDS011;24609;48.316;16.174;2023-07-31T01:59:22;3.80;;;2.22;;
38859;SDS011;24609;48.316;16.174;2023-07-31T02:01:48;3.35;;;2.10;;
38859;SDS011;24609;48.316;16.174;2023-07-31T02:04:13;5.18;;;2.80;;
38859;SDS011;24609;48.316;16.174;2023-07-31T02:06:39;5.57;;;2.47;;
38859;SDS011;24609;48.316;16.174;2023-07-31T02:09:05;3.50;;;2.70;;
38859;SDS011;24609;48.316;16.174;2023-07-31T02:11:30;3.63;;;2.50;;
38859;SDS011;24609;48.316;16.174;2023-07-31T02:13:56;4.10;;;2.80;;
38859;SDS011;24609;48.316;16.174;2023-07-31T02:16:22;3.70;;;2.50;;
38859;SDS011;24609;48.316;16.174;2023-07-31T02:18:47;5.53;;;2.65;;
38859;SDS011;24609;48.316;16.174;2023-07-31T02:21:13;3.00;;;2.22;;
38859;SDS011;24609;48.316;16.174;2023-07-31T02:23:39;5.72;;;2.22;;
38859;SDS011;24609;48.316;16.174;2023-07-31T02:26:04;3.88;;;2.65;;
38859;SDS011;24609;48.316;16.174;2023-07-31T02:28:30;3.65;;;2.47;;
38859;SDS011;24609;48.316;16.174;2023-07-31T02:30:56;3.97;;;2.42;;
38859;SDS011;24609;48.316;16.174;2023-07-31T02:33:21;2.97;;;2.55;;
38859;SDS011;24609;48.316;16.174;2023-07-31T02:35:47;2.40;;;2.20;;
38859;SDS011;24609;48.316;16.174;2023-07-31T02:38:13;2.40;;;2.13;;
38859;SDS011;24609;48.316;16.174;2023-07-31T02:40:39;3.33;;;2.00;;
38859;SDS011;24609;48.316;16.174;2023-07-31T02:45:34;3.28;;;2.70;;
38859;SDS011;24609;48.316;16.174;2023-07-31T02:47:59;2.50;;;1.92;;
38859;SDS011;24609;48.316;16.174;2023-07-31T02:50:25;3.85;;;2.45;;
38859;SDS011;24609;48.316;16.174;2023-07-31T02:52:52;3.47;;;2.00;;
38859;SDS011;24609;48.316;16.174;2023-07-31T02:55:18;3.58;;;2.15;;
38859;SDS011;24609;48.316;16.174;2023-07-31T02:57:44;4.57;;;2.35;;
38859;SDS011;24609;48.316;16.174;2023-07-31T03:00:10;2.58;;;2.30;;
38859;SDS011;24609;48.316;16.174;2023-07-31T03:02:36;3.95;;;2.50;;
38859;SDS011;24609;48.316;16.174;2023-07-31T03:05:01;2.88;;;2.17;;
38859;SDS011;24609;48.316;16.174;2023-07-31T03:07:27;3.28;;;2.20;;
38859;SDS011;24609;48.316;16.174;2023-07-31T03:09:53;6.18;;;2.78;;
38859;SDS011;24609;48.316;16.174;2023-07-31T03:12:19;3.15;;;2.40;;
38859;SDS011;24609;48.316;16.174;2023-07-31T03:14:45;5.40;;;2.47;;
38859;SDS011;24609;48.316;16.174;2023-07-31T03:17:10;3.72;;;2.53;;
38859;SDS011;24609;48.316;16.174;2023-07-31T03:19:36;2.83;;;2.08;;
38859;SDS011;24609;48.316;16.174;2023-07-31T03:22:02;4.35;;;2.20;;
38859;SDS011;24609;48.316;16.174;2023-07-31T03:24:28;4.70;;;2.85;;
38859;SDS011;24609;48.316;16.174;2023-07-31T03:26:54;3.22;;;2.53;;
38859;SDS011;24609;48.316;16.174;2023-07-31T03:29:20;2.60;;;2.40;;
38859;SDS011;24609;48.316;16.174;2023-07-31T03:31:45;2.95;;;2.25;;
38859;SDS011;24609;48.316;16.174;2023-07-31T03:34:11;3.20;;;2.20;;
38859;SDS011;24609;48.316;16.174;2023-07-31T03:36:37;4.85;;;2.80;;
38859;SDS011;24609;48.316;16.174;2023-07-31T03:39:02;4.38;;;2.50;;
38859;SDS011;24609;48.316;16.174;2023-07-31T03:41:28;4.47;;;2.20;;
38859;SDS011;24609;48.316;16.174;2023-07-31T03:43:54;4.30;;;2.33;;
38859;SDS011;24609;48.316;16.174;2023-07-31T03:46:21;3.17;;;2.70;;
38859;SDS011;24609;48.316;16.174;2023-07-31T03:48:48;5.10;;;3.20;;
38859;SDS011;24609;48.316;16.174;2023-07-31T03:51:14;3.20;;;2.25;;
38859;SDS011;24609;48.316;16.174;2023-07-31T03:53:39;2.40;;;2.20;;
38859;SDS011;24609;48.316;16.174;2023-07-31T03:56:05;3.40;;;2.50;;
38859;SDS011;24609;48.316;16.174;2023-07-31T03:58:31;5.53;;;2.50;;
38859;SDS011;24609;48.316;16.174;2023-07-31T04:00:56;4.93;;;3.03;;
38859;SDS011;24609;48.316;16.174;2023-07-31T04:03:22;4.28;;;2.78;;
38859;SDS011;24609;48.316;16.174;2023-07-31T04:05:48;2.72;;;2.03;;
38859;SDS011;24609;48.316;16.174;2023-07-31T04:08:13;3.58;;;2.50;;
38859;SDS011;24609;48.316;16.174;2023-07-31T04:10:39;5.18;;;2.40;;
38859;SDS011;24609;48.316;16.174;2023-07-31T04:13:05;3.38;;;2.45;;
38859;SDS011;24609;48.316;16.174;2023-07-31T04:15:30;4.00;;;2.78;;
38859;SDS011;24609;48.316;16.174;2023-07-31T04:17:56;4.05;;;3.15;;
38859;SDS011;24609;48.316;16.174;2023-07-31T04:20:22;3.10;;;2.80;;
38859;SDS011;24609;48.316;16.174;2023-07-31T04:22:48;9.13;;;3.70;;
38859;SDS011;24609;48.316;16.174;2023-07-31T04:25:14;4.63;;;3.58;;
38859;SDS011;24609;48.316;16.174;2023-07-31T04:27:40;5.47;;;3.47;;
38859;SDS011;24609;48.316;16.174;2023-07-31T04:30:06;3.50;;;3.20;;
38859;SDS011;24609;48.316;16.174;2023-07-31T04:32:32;3.97;;;3.20;;
38859;SDS011;24609;48.316;16.174;2023-07-31T04:34:57;4.88;;;3.50;;
38859;SDS011;24609;48.316;16.174;2023-07-31T04:37:23;3.97;;;3.35;;
38859;SDS011;24609;48.316;16.174;2023-07-31T04:39:49;4.72;;;3.33;;
38859;SDS011;24609;48.316;16.174;2023-07-31T04:42:14;5.43;;;3.33;;
38859;SDS011;24609;48.316;16.174;2023-07-31T04:44:40;4.25;;;3.45;;
38859;SDS011;24609;48.316;16.174;2023-07-31T04:47:05;3.85;;;3.47;;
38859;SDS011;24609;48.316;16.174;2023-07-31T04:49:32;4.10;;;3.70;;
38859;SDS011;24609;48.316;16.174;2023-07-31T04:51:58;4.90;;;4.40;;
38859;SDS011;24609;48.316;16.174;2023-07-31T04:54:23;5.00;;;3.92;;
38859;SDS011;24609;48.316;16.174;2023-07-31T04:56:49;5.00;;;4.38;;
38859;SDS011;24609;48.316;16.174;2023-07-31T04:59:14;5.93;;;4.30;;
38859;SDS011;24609;48.316;16.174;2023-07-31T05:01:40;6.82;;;4.07;;
38859;SDS011;24609;48.316;16.174;2023-07-31T05:04:06;5.57;;;5.00;;
38859;SDS011;24609;48.316;16.174;2023-07-31T05:06:32;5.07;;;4.60;;
38859;SDS011;24609;48.316;16.174;2023-07-31T05:08:57;6.47;;;4.00;;
38859;SDS011;24609;48.316;16.174;2023-07-31T05:11:23;6.18;;;4.40;;
38859;SDS011;24609;48.316;16.174;2023-07-31T05:13:49;6.22;;;4.70;;
38859;SDS011;24609;48.316;16.174;2023-07-31T05:16:14;5.07;;;4.50;;
38859;SDS011;24609;48.316;16.174;2023-07-31T05:18:40;5.20;;;4.57;;
38859;SDS011;24609;48.316;16.174;2023-07-31T05:21:06;6.03;;;4.30;;
38859;SDS011;24609;48.316;16.174;2023-07-31T05:23:32;5.88;;;4.32;;
38859;SDS011;24609;48.316;16.174;2023-07-31T05:26:04;4.65;;;4.25;;
38859;SDS011;24609;48.316;16.174;2023-07-31T05:28:31;4.72;;;3.85;;
38859;SDS011;24609;48.316;16.174;2023-07-31T05:31:00;5.10;;;4.28;;
38859;SDS011;24609;48.316;16.174;2023-07-31T05:33:26;4.43;;;4.03;;
38859;SDS011;24609;48.316;16.174;2023-07-31T05:35:52;6.10;;;3.88;;
38859;SDS011;24609;48.316;16.174;2023-07-31T05:38:18;5.72;;;3.63;;
38859;SDS011;24609;48.316;16.174;2023-07-31T05:40:43;4.57;;;3.80;;
38859;SDS011;24609;48.316;16.174;2023-07-31T05:43:09;8.23;;;3.80;;
38859;SDS011;24609;48.316;16.174;2023-07-31T05:45:35;5.97;;;3.65;;
38859;SDS011;24609;48.316;16.174;2023-07-31T05:48:02;5.88;;;3.25;;
38859;SDS011;24609;48.316;16.174;2023-07-31T05:50:28;4.07;;;3.20;;
38859;SDS011;24609;48.316;16.174;2023-07-31T05:52:53;5.10;;;3.65;;
38859;SDS011;24609;48.316;16.174;2023-07-31T05:55:19;4.38;;;2.90;;
38859;SDS011;24609;48.316;16.174;2023-07-31T05:57:45;4.55;;;2.95;;
38859;SDS011;24609;48.316;16.174;2023-07-31T06:00:12;5.40;;;2.65;;
38859;SDS011;24609;48.316;16.174;2023-07-31T06:02:38;4.10;;;2.70;;
38859;SDS011;24609;48.316;16.174;2023-07-31T06:05:04;5.90;;;3.00;;
38859;SDS011;24609;48.316;16.174;2023-07-31T06:07:33;4.57;;;3.15;;
38859;SDS011;24609;48.316;16.174;2023-07-31T06:09:59;6.78;;;2.90;;
38859;SDS011;24609;48.316;16.174;2023-07-31T06:12:29;3.60;;;2.70;;
38859;SDS011;24609;48.316;16.174;2023-07-31T06:14:56;5.45;;;2.85;;
38859;SDS011;24609;48.316;16.174;2023-07-31T06:17:22;3.53;;;2.90;;
38859;SDS011;24609;48.316;16.174;2023-07-31T06:19:47;7.43;;;2.83;;
38859;SDS011;24609;48.316;16.174;2023-07-31T06:22:14;5.80;;;2.90;;
38859;SDS011;24609;48.316;16.174;2023-07-31T06:24:39;3.25;;;2.83;;
38859;SDS011;24609;48.316;16.174;2023-07-31T06:27:05;5.53;;;2.83;;
38859;SDS011;24609;48.316;16.174;2023-07-31T06:29:31;4.95;;;2.70;;
38859;SDS011;24609;48.316;16.174;2023-07-31T06:31:57;5.38;;;2.67;;
38859;SDS011;24609;48.316;16.174;2023-07-31T06:34:23;4.07;;;2.50;;
38859;SDS011;24609;48.316;16.174;2023-07-31T06:36:48;3.50;;;2.42;;
38859;SDS011;24609;48.316;16.174;2023-07-31T06:39:14;3.42;;;2.30;;
38859;SDS011;24609;48.316;16.174;2023-07-31T06:41:41;3.03;;;2.00;;
38859;SDS011;24609;48.316;16.174;2023-07-31T06:44:08;3.75;;;2.20;;
38859;SDS011;24609;48.316;16.174;2023-07-31T06:46:33;4.32;;;2.15;;
38859;SDS011;24609;48.316;16.174;2023-07-31T06:48:59;5.30;;;2.47;;
38859;SDS011;24609;48.316;16.174;2023-07-31T06:51:24;4.93;;;2.30;;
38859;SDS011;24609;48.316;16.174;2023-07-31T06:53:50;3.72;;;2.45;;
38859;SDS011;24609;48.316;16.174;2023-07-31T06:56:16;5.90;;;2.10;;
38859;SDS011;24609;48.316;16.174;2023-07-31T06:58:42;5.03;;;2.38;;
38859;SDS011;24609;48.316;16.174;2023-07-31T07:01:08;3.53;;;2.00;;
38859;SDS011;24609;48.316;16.174;2023-07-31T07:03:33;5.35;;;2.00;;
38859;SDS011;24609;48.316;16.174;2023-07-31T07:05:59;3.50;;;1.92;;
38859;SDS011;24609;48.316;16.174;2023-07-31T07:08:25;5.85;;;2.30;;
38859;SDS011;24609;48.316;16.174;2023-07-31T07:10:51;4.47;;;2.10;;
38859;SDS011;24609;48.316;16.174;2023-07-31T07:13:17;3.30;;;2.05;;
38859;SDS011;24609;48.316;16.174;2023-07-31T07:15:43;5.50;;;2.45;;
38859;SDS011;24609;48.316;16.174;2023-07-31T07:18:15;3.08;;;1.88;;
38859;SDS011;24609;48.316;16.174;2023-07-31T07:20:49;2.72;;;1.55;;
38859;SDS011;24609;48.316;16.174;2023-07-31T07:23:16;4.90;;;2.00;;
38859;SDS011;24609;48.316;16.174;2023-07-31T07:25:42;3.95;;;2.10;;
38859;SDS011;24609;48.316;16.174;2023-07-31T07:28:08;4.90;;;2.08;;
38859;SDS011;24609;48.316;16.174;2023-07-31T07:30:35;4.38;;;1.95;;
38859;SDS011;24609;48.316;16.174;2023-07-31T07:33:01;4.13;;;1.90;;
38859;SDS011;24609;48.316;16.174;2023-07-31T07:35:26;5.22;;;2.20;;
38859;SDS011;24609;48.316;16.174;2023-07-31T07:37:52;4.60;;;1.83;;
38859;SDS011;24609;48.316;16.174;2023-07-31T07:40:18;2.25;;;1.85;;
38859;SDS011;24609;48.316;16.174;2023-07-31T07:42:44;4.53;;;2.40;;
38859;SDS011;24609;48.316;16.174;2023-07-31T07:45:10;3.72;;;1.85;;
38859;SDS011;24609;48.316;16.174;2023-07-31T07:47:37;4.57;;;2.00;;
38859;SDS011;24609;48.316;16.174;2023-07-31T07:50:05;4.80;;;1.83;;
38859;SDS011;24609;48.316;16.174;2023-07-31T07:52:31;3.47;;;1.90;;
38859;SDS011;24609;48.316;16.174;2023-07-31T07:54:57;3.45;;;1.60;;
38859;SDS011;24609;48.316;16.174;2023-07-31T07:57:23;3.15;;;1.80;;
38859;SDS011;24609;48.316;16.174;2023-07-31T07:59:48;3.50;;;1.98;;
38859;SDS011;24609;48.316;16.174;2023-07-31T08:02:14;2.90;;;1.95;;
38859;SDS011;24609;48.316;16.174;2023-07-31T08:04:40;3.40;;;1.70;;
38859;SDS011;24609;48.316;16.174;2023-07-31T08:07:05;3.13;;;1.52;;
38859;SDS011;24609;48.316;16.174;2023-07-31T08:09:31;4.30;;;1.90;;
38859;SDS011;24609;48.316;16.174;2023-07-31T08:11:57;2.75;;;1.63;;
38859;SDS011;24609;48.316;16.174;2023-07-31T08:14:27;3.88;;;1.63;;
38859;SDS011;24609;48.316;16.174;2023-07-31T08:16:52;3.78;;;1.60;;
38859;SDS011;24609;48.316;16.174;2023-07-31T08:19:18;3.30;;;1.60;;
38859;SDS011;24609;48.316;16.174;2023-07-31T08:21:44;4.72;;;2.00;;
38859;SDS011;24609;48.316;16.174;2023-07-31T08:24:10;3.53;;;1.73;;
38859;SDS011;24609;48.316;16.174;2023-07-31T08:26:35;6.50;;;1.80;;
38859;SDS011;24609;48.316;16.174;2023-07-31T08:29:01;5.80;;;1.77;;
38859;SDS011;24609;48.316;16.174;2023-07-31T08:31:27;3.70;;;1.52;;
38859;SDS011;24609;48.316;16.174;2023-07-31T08:33:54;4.15;;;1.50;;
38859;SDS011;24609;48.316;16.174;2023-07-31T08:36:21;3.63;;;1.77;;
38859;SDS011;24609;48.316;16.174;2023-07-31T08:38:46;5.35;;;1.63;;
38859;SDS011;24609;48.316;16.174;2023-07-31T08:41:12;2.50;;;1.48;;
38859;SDS011;24609;48.316;16.174;2023-07-31T08:43:38;3.50;;;1.50;;
38859;SDS011;24609;48.316;16.174;2023-07-31T08:46:04;2.35;;;1.70;;
38859;SDS011;24609;48.316;16.174;2023-07-31T08:48:30;4.20;;;1.60;;
38859;SDS011;24609;48.316;16.174;2023-07-31T08:50:57;3.25;;;1.48;;
38859;SDS011;24609;48.316;16.174;2023-07-31T08:53:23;2.90;;;1.38;;
38859;SDS011;24609;48.316;16.174;2023-07-31T08:55:50;5.53;;;1.70;;
38859;SDS011;24609;48.316;16.174;2023-07-31T08:58:18;2.97;;;1.52;;
38859;SDS011;24609;48.316;16.174;2023-07-31T09:00:45;2.85;;;1.35;;
38859;SDS011;24609;48.316;16.174;2023-07-31T09:03:15;2.95;;;1.58;;
38859;SDS011;24609;48.316;16.174;2023-07-31T09:05:44;4.05;;;1.40;;
38859;SDS011;24609;48.316;16.174;2023-07-31T09:08:11;2.80;;;1.17;;
38859;SDS011;24609;48.316;16.174;2023-07-31T09:10:44;2.58;;;1.70;;
38859;SDS011;24609;48.316;16.174;2023-07-31T09:13:11;2.95;;;1.33;;
38859;SDS011;24609;48.316;16.174;2023-07-31T09:15:38;3.13;;;1.60;;
38859;SDS011;24609;48.316;16.174;2023-07-31T09:18:05;3.50;;;1.45;;
38859;SDS011;24609;48.316;16.174;2023-07-31T09:20:32;3.33;;;1.70;;
38859;SDS011;24609;48.316;16.174;2023-07-31T09:23:32;3.95;;;1.75;;
38859;SDS011;24609;48.316;16.174;2023-07-31T09:25:50;3.72;;;1.50;;
38859;SDS011;24609;48.316;16.174;2023-07-31T09:28:16;4.18;;;1.80;;
38859;SDS011;24609;48.316;16.174;2023-07-31T09:30:46;2.60;;;1.60;;
38859;SDS011;24609;48.316;16.174;2023-07-31T09:33:16;4.38;;;1.58;;
38859;SDS011;24609;48.316;16.174;2023-07-31T09:35:43;2.83;;;1.52;;
38859;SDS011;24609;48.316;16.174;2023-07-31T09:38:12;2.95;;;1.63;;
38859;SDS011;24609;48.316;16.174;2023-07-31T09:40:40;2.80;;;1.58;;
38859;SDS011;24609;48.316;16.174;2023-07-31T09:43:08;2.80;;;1.55;;
38859;SDS011;24609;48.316;16.174;2023-07-31T09:45:36;4.60;;;1.60;;
38859;SDS011;24609;48.316;16.174;2023-07-31T09:48:10;4.07;;;1.80;;
38859;SDS011;24609;48.316;16.174;2023-07-31T09:50:38;4.75;;;1.52;;
38859;SDS011;24609;48.316;16.174;2023-07-31T09:53:05;4.82;;;1.60;;
38859;SDS011;24609;48.316;16.174;2023-07-31T09:55:31;3.45;;;1.80;;
38859;SDS011;24609;48.316;16.174;2023-07-31T09:57:57;3.40;;;1.80;;
38859;SDS011;24609;48.316;16.174;2023-07-31T10:00:23;2.83;;;1.50;;
38859;SDS011;24609;48.316;16.174;2023-07-31T10:02:53;3.65;;;1.30;;
38859;SDS011;24609;48.316;16.174;2023-07-31T10:05:23;4.35;;;1.60;;
38859;SDS011;24609;48.316;16.174;2023-07-31T10:07:55;3.90;;;2.00;;
38859;SDS011;24609;48.316;16.174;2023-07-31T10:10:22;3.85;;;1.60;;
38859;SDS011;24609;48.316;16.174;2023-07-31T10:12:50;7.72;;;1.52;;
38859;SDS011;24609;48.316;16.174;2023-07-31T10:15:18;2.60;;;1.38;;
38859;SDS011;24609;48.316;16.174;2023-07-31T10:17:48;4.18;;;1.67;;
38859;SDS011;24609;48.316;16.174;2023-07-31T10:20:15;3.05;;;1.20;;
38859;SDS011;24609;48.316;16.174;2023-07-31T10:22:42;3.70;;;1.67;;
38859;SDS011;24609;48.316;16.174;2023-07-31T10:25:08;2.58;;;1.60;;
38859;SDS011;24609;48.316;16.174;2023-07-31T10:27:35;2.88;;;1.60;;
38859;SDS011;24609;48.316;16.174;2023-07-31T10:30:03;5.03;;;1.30;;
38859;SDS011;24609;48.316;16.174;2023-07-31T10:32:30;2.97;;;1.33;;
38859;SDS011;24609;48.316;16.174;2023-07-31T10:34:57;3.80;;;1.42;;
38859;SDS011;24609;48.316;16.174;2023-07-31T10:37:24;2.65;;;1.33;;
38859;SDS011;24609;48.316;16.174;2023-07-31T10:39:56;3.97;;;1.50;;
38859;SDS011;24609;48.316;16.174;2023-07-31T10:42:29;3.08;;;1.77;;
38859;SDS011;24609;48.316;16.174;2023-07-31T10:45:04;2.92;;;1.70;;
38859;SDS011;24609;48.316;16.174;2023-07-31T10:47:31;4.72;;;1.73;;
38859;SDS011;24609;48.316;16.174;2023-07-31T10:50:19;4.68;;;1.48;;
38859;SDS011;24609;48.316;16.174;2023-07-31T10:52:46;5.25;;;1.90;;
38859;SDS011;24609;48.316;16.174;2023-07-31T10:55:27;4.18;;;1.80;;
38859;SDS011;24609;48.316;16.174;2023-07-31T11:00:32;5.15;;;1.52;;
38859;SDS011;24609;48.316;16.174;2023-07-31T11:03:17;2.85;;;1.40;;
38859;SDS011;24609;48.316;16.174;2023-07-31T11:05:52;5.35;;;1.92;;
38859;SDS011;24609;48.316;16.174;2023-07-31T11:08:25;2.28;;;1.30;;
38859;SDS011;24609;48.316;16.174;2023-07-31T11:13:27;3.53;;;1.60;;
38859;SDS011;24609;48.316;16.174;2023-07-31T11:15:56;2.25;;;1.40;;
38859;SDS011;24609;48.316;16.174;2023-07-31T11:18:21;1.98;;;1.40;;
38859;SDS011;24609;48.316;16.174;2023-07-31T11:20:47;4.25;;;1.70;;
38859;SDS011;24609;48.316;16.174;2023-07-31T11:23:15;3.75;;;1.65;;
38859;SDS011;24609;48.316;16.174;2023-07-31T11:25:42;2.88;;;1.30;;
38859;SDS011;24609;48.316;16.174;2023-07-31T11:28:11;3.20;;;1.30;;
38859;SDS011;24609;48.316;16.174;2023-07-31T11:30:38;5.75;;;1.48;;
38859;SDS011;24609;48.316;16.174;2023-07-31T11:33:08;5.82;;;1.70;;
38859;SDS011;24609;48.316;16.174;2023-07-31T11:35:36;3.30;;;1.90;;
38859;SDS011;24609;48.316;16.174;2023-07-31T11:38:10;4.88;;;1.60;;
38859;SDS011;24609;48.316;16.174;2023-07-31T11:40:59;6.55;;;1.52;;
38859;SDS011;24609;48.316;16.174;2023-07-31T11:43:33;2.80;;;1.58;;
38859;SDS011;24609;48.316;16.174;2023-07-31T11:46:01;2.92;;;1.60;;
38859;SDS011;24609;48.316;16.174;2023-07-31T11:48:32;4.63;;;1.88;;
38859;SDS011;24609;48.316;16.174;2023-07-31T11:51:01;5.18;;;1.45;;
38859;SDS011;24609;48.316;16.174;2023-07-31T11:53:43;2.63;;;1.58;;
38859;SDS011;24609;48.316;16.174;2023-07-31T11:56:12;3.30;;;1.45;;
38859;SDS011;24609;48.316;16.174;2023-07-31T11:58:39;4.07;;;1.52;;
38859;SDS011;24609;48.316;16.174;2023-07-31T12:01:08;4.15;;;2.00;;
38859;SDS011;24609;48.316;16.174;2023-07-31T12:03:34;3.33;;;1.50;;
38859;SDS011;24609;48.316;16.174;2023-07-31T12:06:00;2.38;;;1.40;;
38859;SDS011;24609;48.316;16.174;2023-07-31T12:08:26;3.03;;;1.52;;
38859;SDS011;24609;48.316;16.174;2023-07-31T12:10:52;2.45;;;1.45;;
38859;SDS011;24609;48.316;16.174;2023-07-31T12:15:48;2.58;;;1.40;;
38859;SDS011;24609;48.316;16.174;2023-07-31T12:18:19;5.50;;;1.70;;
38859;SDS011;24609;48.316;16.174;2023-07-31T12:20:46;2.75;;;1.48;;
38859;SDS011;24609;48.316;16.174;2023-07-31T12:23:17;3.47;;;1.63;;
38859;SDS011;24609;48.316;16.174;2023-07-31T12:28:37;2.78;;;1.33;;
38859;SDS011;24609;48.316;16.174;2023-07-31T12:31:03;3.58;;;1.48;;
38859;SDS011;24609;48.316;16.174;2023-07-31T12:33:30;2.92;;;1.45;;
38859;SDS011;24609;48.316;16.174;2023-07-31T12:35:57;3.40;;;1.25;;
38859;SDS011;24609;48.316;16.174;2023-07-31T12:38:25;3.05;;;1.40;;
38859;SDS011;24609;48.316;16.174;2023-07-31T12:40:51;6.20;;;1.95;;
38859;SDS011;24609;48.316;16.174;2023-07-31T12:43:17;3.92;;;1.77;;
38859;SDS011;24609;48.316;16.174;2023-07-31T12:45:42;3.08;;;1.40;;
38859;SDS011;24609;48.316;16.174;2023-07-31T12:48:08;3.20;;;1.35;;
38859;SDS011;24609;48.316;16.174;2023-07-31T12:50:34;2.25;;;1.45;;
38859;SDS011;24609;48.316;16.174;2023-07-31T12:53:02;3.72;;;1.60;;
38859;SDS011;24609;48.316;16.174;2023-07-31T12:55:30;2.55;;;1.38;;
38859;SDS011;24609;48.316;16.174;2023-07-31T12:57:59;2.00;;;1.40;;
38859;SDS011;24609;48.316;16.174;2023-07-31T13:00:25;2.13;;;1.52;;
38859;SDS011;24609;48.316;16.174;2023-07-31T13:02:51;1.90;;;1.55;;
38859;SDS011;24609;48.316;16.174;2023-07-31T13:05:17;2.80;;;1.42;;
38859;SDS011;24609;48.316;16.174;2023-07-31T13:07:44;2.40;;;1.55;;
38859;SDS011;24609;48.316;16.174;2023-07-31T13:10:10;3.78;;;1.50;;
38859;SDS011;24609;48.316;16.174;2023-07-31T13:12:36;2.65;;;1.60;;
38859;SDS011;24609;48.316;16.174;2023-07-31T13:15:02;3.38;;;1.50;;
38859;SDS011;24609;48.316;16.174;2023-07-31T13:17:28;3.70;;;1.50;;
38859;SDS011;24609;48.316;16.174;2023-07-31T13:19:54;3.13;;;1.73;;
38859;SDS011;24609;48.316;16.174;2023-07-31T13:22:19;4.28;;;1.70;;
38859;SDS011;24609;48.316;16.174;2023-07-31T13:24:45;3.10;;;1.52;;
38859;SDS011;24609;48.316;16.174;2023-07-31T13:27:11;2.20;;;1.40;;
38859;SDS011;24609;48.316;16.174;2023-07-31T13:29:36;3.22;;;1.45;;
38859;SDS011;24609;48.316;16.174;2023-07-31T13:32:02;3.88;;;1.73;;
38859;SDS011;24609;48.316;16.174;2023-07-31T13:34:28;2.83;;;1.52;;
38859;SDS011;24609;48.316;16.174;2023-07-31T13:36:54;2.30;;;1.00;;
38859;SDS011;24609;48.316;16.174;2023-07-31T13:39:21;2.75;;;1.50;;
38859;SDS011;24609;48.316;16.174;2023-07-31T13:41:46;3.35;;;1.10;;
38859;SDS011;24609;48.316;16.174;2023-07-31T13:44:12;3.63;;;1.33;;
38859;SDS011;24609;48.316;16.174;2023-07-31T13:46:38;3.35;;;1.60;;
38859;SDS011;24609;48.316;16.174;2023-07-31T13:49:03;3.47;;;1.42;;
38859;SDS011;24609;48.316;16.174;2023-07-31T13:51:29;3.05;;;1.50;;
38859;SDS011;24609;48.316;16.174;2023-07-31T13:53:55;3.42;;;1.65;;
38859;SDS011;24609;48.316;16.174;2023-07-31T13:56:20;2.50;;;1.40;;
38859;SDS011;24609;48.316;16.174;2023-07-31T13:58:46;2.00;;;1.40;;
38859;SDS011;24609;48.316;16.174;2023-07-31T14:01:12;2.83;;;1.40;;
38859;SDS011;24609;48.316;16.174;2023-07-31T14:03:37;6.45;;;1.63;;
38859;SDS011;24609;48.316;16.174;2023-07-31T14:06:03;2.17;;;1.48;;
38859;SDS011;24609;48.316;16.174;2023-07-31T14:08:29;2.38;;;1.33;;
38859;SDS011;24609;48.316;16.174;2023-07-31T14:10:55;3.47;;;1.48;;
38859;SDS011;24609;48.316;16.174;2023-07-31T14:13:21;2.22;;;1.13;;
38859;SDS011;24609;48.316;16.174;2023-07-31T14:15:46;3.75;;;1.45;;
38859;SDS011;24609;48.316;16.174;2023-07-31T14:18:12;3.30;;;1.70;;
38859;SDS011;24609;48.316;16.174;2023-07-31T14:20:38;3.38;;;1.63;;
38859;SDS011;24609;48.316;16.174;2023-07-31T14:23:03;2.15;;;1.20;;
38859;SDS011;24609;48.316;16.174;2023-07-31T14:25:29;3.20;;;1.70;;
38859;SDS011;24609;48.316;16.174;2023-07-31T14:27:55;3.17;;;1.30;;
38859;SDS011;24609;48.316;16.174;2023-07-31T14:30:20;1.98;;;1.17;;
38859;SDS011;24609;48.316;16.174;2023-07-31T14:32:46;2.40;;;1.35;;
38859;SDS011;24609;48.316;16.174;2023-07-31T14:35:12;3.90;;;1.70;;
38859;SDS011;24609;48.316;16.174;2023-07-31T14:37:41;5.18;;;1.65;;
38859;SDS011;24609;48.316;16.174;2023-07-31T14:40:08;3.70;;;1.50;;
38859;SDS011;24609;48.316;16.174;2023-07-31T14:42:35;2.60;;;1.50;;
38859;SDS011;24609;48.316;16.174;2023-07-31T14:45:01;5.00;;;1.50;;
38859;SDS011;24609;48.316;16.174;2023-07-31T14:47:28;2.33;;;1.52;;
38859;SDS011;24609;48.316;16.174;2023-07-31T14:49:56;1.75;;;1.27;;
38859;SDS011;24609;48.316;16.174;2023-07-31T14:52:21;4.53;;;1.40;;